Terminal Aerodrome Forecast
Issued by NWS

Home | Current Version | Previous Version | Text Only | Print | Product List | Glossary On
Versions: 1 2 3 4 5 6 7 8 9 10 11 12 13
000
FTUS45 KABQ 202300
TAFSAF
TAF
KSAF 202326Z 2100/2124 34011KT P6SM VCSH BKN080
     FM210200 36007KT P6SM SCT100
     FM211900 15010KT P6SM SCT100=

USA.gov is the U.S. government's official web portal to all federal, state and local government web resources and services.